FYOO

Okaukuejo Airport

Okaukuejo, Namibia
METAR FYOO 241200Z AUTO 00000KT //// // ////// 35/02 Q1012
Observed Flight Rules
Feb-24 @ 12:00 UTC (23 minutes ago)
Wind
Calm
Temperatures Readings
Current 35°C / 95°F
Dewpoint 2°C / 36°F
Humidity 12%
Altimeter 29.88" Hg
Pressure 1012 hPa
Elevation 1192
METAR FYOO 241200Z AUTO 00000KT //// // ////// 35/02 Q1012
Observed Flight Rules
Feb-24 @ 12:00 UTC
(23 minutes ago)
Wind
Calm
Temperature Dewpoint
35°C / 95°F 2°C / 36°F
Humidity Altimeter Pressure
12% 29.88" Hg 1012 hPa